Time;durP1;ratioP1;P1;durP2;ratioP2;P2;SDS_P1;SDS_P2;PMS_P1;PMS_P2;Temp;Humidity;BMP_temperature;BMP_pressure;BME280_temperature;BME280_humidity;BME280_pressure;Samples;Min_cycle;Max_cycle;Signal;HPM_P1;HPM_P2
2021/12/18 00:00:34;;;;;;;15.05;5.65;;;;;;;7.13;86.17;102589.78;5072704;28;20025;-78
2021/12/18 00:03:02;;;;;;;11.95;4.78;;;;;;;7.16;85.19;102584.19;5072796;28;20029;-77
2021/12/18 00:05:27;;;;;;;14.23;5.07;;;;;;;7.15;85.46;102584.31;5072929;28;20423;-77
2021/12/18 00:07:53;;;;;;;12.18;4.85;;;;;;;7.08;85.62;102586.63;5072644;28;20071;-76
2021/12/18 00:10:21;;;;;;;14.23;4.90;;;;;;;7.11;85.89;102589.06;5072833;28;20036;-76
2021/12/18 00:12:49;;;;;;;15.15;4.97;;;;;;;7.14;85.33;102580.78;5072924;28;20869;-76
2021/12/18 00:15:19;;;;;;;14.95;5.47;;;;;;;7.13;85.57;102579.06;5072461;28;20082;-78
2021/12/18 00:17:45;;;;;;;13.90;5.13;;;;;;;7.11;85.91;102578.34;5088240;28;20094;-76
2021/12/18 00:20:13;;;;;;;15.57;5.88;;;;;;;7.11;85.74;102577.50;5072837;28;20036;-76
2021/12/18 00:22:39;;;;;;;16.13;5.35;;;;;;;7.05;85.72;102581.53;5071478;28;20028;-76
2021/12/18 00:25:04;;;;;;;14.18;6.03;;;;;;;7.03;86.46;102583.47;5072381;28;20467;-77
2021/12/18 00:27:29;;;;;;;15.73;5.47;;;;;;;6.99;86.38;102575.84;5072684;28;20063;-79
2021/12/18 00:29:55;;;;;;;15.30;5.17;;;;;;;7.00;86.49;102570.34;5073836;28;20059;-76
2021/12/18 00:32:20;;;;;;;14.32;5.28;;;;;;;7.06;86.70;102572.50;5076090;28;20733;-76
2021/12/18 00:34:45;;;;;;;14.10;5.32;;;;;;;7.04;86.39;102565.56;5076002;28;20041;-77
2021/12/18 00:37:11;;;;;;;14.35;5.13;;;;;;;7.03;86.57;102571.91;5076080;28;20044;-77
2021/12/18 00:39:43;;;;;;;14.17;5.57;;;;;;;7.07;86.55;102574.22;5076326;28;20038;-77
2021/12/18 00:42:21;;;;;;;12.15;5.53;;;;;;;7.00;86.64;102573.00;5075822;28;20633;-76
2021/12/18 00:44:46;;;;;;;15.07;5.43;;;;;;;6.91;87.18;102568.44;5075887;28;20382;-76
2021/12/18 00:47:12;;;;;;;18.15;6.07;;;;;;;6.96;86.93;102576.97;5075829;28;20104;-76
2021/12/18 00:49:37;;;;;;;14.73;5.60;;;;;;;7.01;86.55;102574.72;5075683;28;20119;-76
2021/12/18 00:52:04;;;;;;;11.23;5.07;;;;;;;7.00;87.29;102580.19;5076035;28;20025;-76
2021/12/18 00:54:31;;;;;;;20.50;5.53;;;;;;;7.00;86.76;102583.72;5075942;28;20285;-77
2021/12/18 00:56:57;;;;;;;13.63;5.50;;;;;;;6.87;86.77;102583.06;5076204;28;20028;-77
2021/12/18 00:59:22;;;;;;;;;;;;;;;7.00;86.74;102580.19;5076062;28;20025;-76
2021/12/18 01:01:48;;;;;;;16.13;5.82;;;;;;;7.00;86.47;102586.41;5075497;28;20362;-78
2021/12/18 01:04:14;;;;;;;20.73;6.53;;;;;;;7.00;86.72;102580.19;5044647;27;20479;-76
2021/12/18 01:06:39;;;;;;;19.65;6.53;;;;;;;6.97;86.47;102587.56;5075517;28;20040;-77
2021/12/18 01:09:05;;;;;;;15.60;6.13;;;;;;;6.99;86.98;102582.03;5075354;28;20028;-77
2021/12/18 01:11:43;;;;;;;16.10;6.77;;;;;;;7.01;86.38;102582.75;5075638;28;20037;-76
2021/12/18 01:24:52;;;;;;;20.02;7.65;;;;;;;7.05;86.42;102600.28;5075471;28;20040;-76
2021/12/18 01:27:17;;;;;;;;;;;;;;;7.06;86.72;102601.16;5075858;28;20494;-76
2021/12/18 01:29:43;;;;;;;18.95;6.65;;;;;;;6.96;87.35;102593.03;5075328;28;19908;-77
2021/12/18 01:32:09;;;;;;;19.93;6.77;;;;;;;6.94;86.88;102590.47;5090828;28;20107;-76
2021/12/18 01:34:35;;;;;;;16.02;6.13;;;;;;;6.93;87.67;102596.81;5075365;28;20041;-77
2021/12/18 01:37:01;;;;;;;18.33;6.57;;;;;;;6.94;87.44;102590.47;5074982;28;20102;-77
2021/12/18 01:39:26;;;;;;;23.17;7.78;;;;;;;7.02;87.28;102600.53;5075055;28;20040;-77
2021/12/18 01:52:39;;;;;;;17.73;5.88;;;;;;;6.90;88.05;102591.72;5074806;28;20051;-77
2021/12/18 01:55:05;;;;;;;;;;;;;;;6.85;88.57;102593.06;5075267;28;20089;-77
2021/12/18 01:57:32;;;;;;;21.85;6.40;;;;;;;6.88;88.26;102592.81;5074543;28;19908;-76
2021/12/18 01:59:57;;;;;;;17.88;7.05;;;;;;;6.83;88.97;102587.84;5074300;28;20463;-76
2021/12/18 02:02:23;;;;;;;21.15;8.10;;;;;;;6.80;89.36;102589.94;5074619;28;20082;-77
2021/12/18 02:04:49;;;;;;;19.02;5.90;;;;;;;6.81;89.01;102591.59;5074294;28;20032;-77
2021/12/18 02:07:15;;;;;;;21.80;6.47;;;;;;;6.82;89.24;102585.28;5074230;28;20039;-76
2021/12/18 02:12:32;;;;;;;21.95;7.03;;;;;;;6.80;88.65;102584.59;5074175;28;20309;-77
2021/12/18 02:22:49;;;;;;;16.33;5.40;;;;;;;6.73;87.66;102562.78;5074303;28;20075;-76
2021/12/18 02:25:14;;;;;;;;;;;;;;;6.71;87.69;102561.22;5074550;28;20040;-76
2021/12/18 02:27:40;;;;;;;9.93;3.20;;;;;;;6.73;87.05;102567.31;5074432;28;20007;-76
2021/12/18 02:30:07;;;;;;;12.38;3.67;;;;;;;6.71;87.69;102566.56;5073623;28;20052;-76
2021/12/18 02:32:33;;;;;;;12.23;4.00;;;;;;;6.69;87.68;102547.94;5073994;28;20036;-76
2021/12/18 02:35:03;;;;;;;12.40;4.43;;;;;;;6.64;87.84;102552.81;5074203;28;20444;-77
2021/12/18 02:37:29;;;;;;;12.82;4.03;;;;;;;6.61;88.18;102543.25;5073869;28;20080;-77
2021/12/18 02:40:47;;;;;;;;;;;;;;;6.54;88.28;102543.88;5074007;28;20086;-76
2021/12/18 02:42:40;;;;;;;11.95;3.65;;;;;;;6.51;89.05;102536.06;5073230;28;19913;-76
2021/12/18 02:45:07;;;;;;;11.60;3.20;;;;;;;6.63;88.84;102535.06;5073713;28;20473;-77
2021/12/18 02:47:32;;;;;;;11.65;4.07;;;;;;;6.71;88.72;102526.38;5073661;28;20086;-76
2021/12/18 02:49:58;;;;;;;11.82;3.72;;;;;;;6.70;87.84;102527.38;5073692;28;20034;-76
2021/12/18 02:52:29;;;;;;;13.43;3.83;;;;;;;6.79;88.17;102527.47;5054696;28;20064;-76
2021/12/18 02:54:55;;;;;;;11.23;3.13;;;;;;;6.82;87.39;102537.03;5089286;28;20270;-76
2021/12/18 02:57:20;;;;;;;12.13;3.20;;;;;;;6.82;87.09;102529.00;5073176;28;20039;-76
2021/12/18 02:59:51;;;;;;;12.00;5.20;;;;;;;6.80;87.10;102531.00;5072106;28;20305;-78
2021/12/18 03:02:18;;;;;;;10.90;4.63;;;;;;;6.79;87.13;102531.97;5041161;27;20665;-77
2021/12/18 03:04:48;;;;;;;12.05;3.33;;;;;;;6.69;87.49;102528.34;5074374;28;20479;-77
2021/12/18 03:07:16;;;;;;;12.80;3.90;;;;;;;6.61;87.92;102527.16;5073570;28;20109;-76
2021/12/18 03:23:40;;;;;;;10.23;3.30;;;;;;;6.67;87.56;102549.91;5071531;28;20037;-77
2021/12/18 03:26:06;;;;;;;12.65;3.55;;;;;;;6.69;88.70;102541.72;5073226;28;20028;-77
2021/12/18 03:28:32;;;;;;;15.35;4.97;;;;;;;6.72;87.95;102536.97;5072051;28;20068;-77
2021/12/18 03:30:58;;;;;;;16.13;4.85;;;;;;;6.69;87.91;102531.88;5073356;28;20106;-76
2021/12/18 03:33:25;;;;;;;10.27;3.45;;;;;;;6.67;88.54;102538.34;5073412;28;20032;-77
2021/12/18 03:35:51;;;;;;;13.68;4.88;;;;;;;6.74;88.42;102534.19;5073780;28;20041;-77
2021/12/18 03:38:17;;;;;;;10.82;4.13;;;;;;;6.66;88.60;102540.16;5072024;28;20050;-78
2021/12/18 03:40:42;;;;;;;11.13;3.70;;;;;;;6.69;89.02;102541.72;5071799;28;20123;-76
2021/12/18 03:43:07;;;;;;;12.60;4.50;;;;;;;6.80;88.08;102533.66;5072824;28;20074;-77
2021/12/18 03:45:33;;;;;;;11.73;4.73;;;;;;;6.73;87.83;102524.44;5072829;28;20658;-76
2021/12/18 03:47:58;;;;;;;11.73;4.30;;;;;;;6.74;88.43;102535.03;5072718;28;20316;-77
2021/12/18 03:50:23;;;;;;;9.37;3.33;;;;;;;6.76;88.00;102524.19;5071756;28;20900;-77
2021/12/18 03:52:49;;;;;;;8.90;2.92;;;;;;;6.74;88.10;102523.47;5073014;28;20259;-77
2021/12/18 03:55:16;;;;;;;12.15;3.45;;;;;;;6.74;88.07;102520.78;5073040;28;20123;-78
2021/12/18 03:57:42;;;;;;;8.93;2.80;;;;;;;6.74;87.89;102518.94;5071740;28;20386;-78
2021/12/18 04:00:10;;;;;;;8.20;3.45;;;;;;;6.75;88.15;102523.34;5071733;28;20522;-76
2021/12/18 04:02:35;;;;;;;7.53;2.40;;;;;;;6.72;88.51;102520.91;5072614;28;20036;-80
2021/12/18 04:05:01;;;;;;;7.00;2.80;;;;;;;6.72;88.60;102520.06;5076012;28;20431;-75
2021/12/18 04:07:26;;;;;;;7.00;2.63;;;;;;;6.71;88.82;102521.03;5076552;28;20059;-75
2021/12/18 04:09:51;;;;;;;7.03;2.10;;;;;;;6.73;89.67;102535.16;5075506;28;20120;-74
2021/12/18 04:12:17;;;;;;;9.82;2.63;;;;;;;6.73;88.98;102535.16;5076708;28;20255;-75
2021/12/18 04:14:43;;;;;;;7.88;2.35;;;;;;;6.71;89.02;102531.75;5076831;28;20033;-76
2021/12/18 04:17:08;;;;;;;7.65;2.67;;;;;;;6.72;89.29;102528.09;5076750;28;20383;-77
2021/12/18 04:19:34;;;;;;;8.80;3.30;;;;;;;6.75;88.60;102534.03;5076522;28;20051;-78
2021/12/18 04:21:59;;;;;;;8.88;2.90;;;;;;;6.67;89.73;102535.66;5076571;28;20032;-76
2021/12/18 04:24:25;;;;;;;12.35;3.65;;;;;;;6.73;89.16;102527.97;5076926;28;20045;-76
2021/12/18 04:26:50;;;;;;;9.98;3.00;;;;;;;6.77;89.61;102525.88;5076288;28;20029;-76
2021/12/18 04:29:15;;;;;;;9.55;2.53;;;;;;;6.81;89.28;102538.88;5076513;28;20028;-77
2021/12/18 04:31:41;;;;;;;10.50;3.50;;;;;;;6.77;89.05;102537.44;5076203;28;20056;-77
2021/12/18 04:34:06;;;;;;;10.55;2.65;;;;;;;6.75;89.59;102535.88;5076050;28;20059;-77
2021/12/18 04:36:32;;;;;;;10.95;3.03;;;;;;;6.78;89.76;102538.31;5076167;28;20036;-76
2021/12/18 04:38:58;;;;;;;9.02;2.67;;;;;;;6.76;89.18;102530.38;5075898;28;20087;-76
2021/12/18 04:41:36;;;;;;;;;;;;;;;6.86;89.63;102535.81;5076344;28;20082;-76
2021/12/18 04:44:02;;;;;;;7.18;2.60;;;;;;;6.87;89.83;102534.84;5075975;28;19913;-77
2021/12/18 04:46:27;;;;;;;;;;;;;;;6.90;88.94;102534.59;5076267;28;20036;-77
2021/12/18 04:48:52;;;;;;;9.80;2.40;;;;;;;6.87;89.46;102537.50;5074916;28;19935;-76
2021/12/18 04:51:18;;;;;;;7.80;2.83;;;;;;;6.89;88.80;102527.53;5074765;28;20047;-77
2021/12/18 04:53:43;;;;;;;7.87;2.60;;;;;;;6.88;89.12;102545.44;5075669;28;20277;-77
2021/12/18 04:56:08;;;;;;;8.27;2.60;;;;;;;6.97;89.11;102550.03;5075720;28;20387;-76
2021/12/18 04:58:34;;;;;;;9.17;2.63;;;;;;;6.99;88.75;102538.34;5075680;28;20358;-76
2021/12/18 05:00:59;;;;;;;7.35;2.33;;;;;;;6.97;88.97;102539.31;5075749;28;20079;-77
2021/12/18 05:03:25;;;;;;;7.65;2.40;;;;;;;6.94;89.24;102549.44;5047450;27;20040;-76
2021/12/18 05:05:50;;;;;;;8.90;3.10;;;;;;;6.95;89.08;102537.72;5075710;28;20507;-77
2021/12/18 05:08:15;;;;;;;11.07;3.55;;;;;;;6.94;89.08;102539.56;5075662;28;20489;-76
2021/12/18 05:10:41;;;;;;;8.30;2.90;;;;;;;6.96;89.22;102536.75;5075777;28;20029;-76
2021/12/18 05:13:06;;;;;;;9.48;3.38;;;;;;;6.99;88.79;102531.09;5075442;28;20036;-77
2021/12/18 05:15:32;;;;;;;7.20;2.53;;;;;;;6.99;89.24;102527.59;5075344;28;20051;-78
2021/12/18 05:17:57;;;;;;;9.65;2.75;;;;;;;6.99;88.51;102527.59;5075490;28;20032;-78
2021/12/18 05:20:23;;;;;;;10.95;3.03;;;;;;;6.89;88.70;102530.19;5075592;28;20028;-77
2021/12/18 05:22:48;;;;;;;8.03;2.07;;;;;;;6.95;89.13;102519.81;5075662;28;20486;-77
2021/12/18 05:25:14;;;;;;;9.60;2.63;;;;;;;6.87;88.75;102533.00;5075196;28;20660;-77
2021/12/18 05:27:39;;;;;;;9.93;2.72;;;;;;;7.01;89.07;102539.88;5075138;28;20383;-78
2021/12/18 05:30:07;;;;;;;7.72;2.90;;;;;;;6.91;89.20;102534.47;5075787;28;20047;-76
2021/12/18 05:32:33;;;;;;;8.00;2.45;;;;;;;6.99;89.09;102539.16;5075056;28;20541;-79
2021/12/18 05:34:58;;;;;;;10.63;2.45;;;;;;;7.03;88.92;102537.91;5075283;28;20028;-77
2021/12/18 05:40:24;;;;;;;6.35;2.00;;;;;;;6.93;89.14;102542.38;5074815;28;20189;-77
2021/12/18 05:42:51;;;;;;;10.90;2.67;;;;;;;7.01;89.44;102542.56;5076152;28;20032;-78
2021/12/18 05:45:17;;;;;;;9.18;2.47;;;;;;;6.98;89.45;102548.19;5076170;28;20036;-78
2021/12/18 05:47:43;;;;;;;7.00;2.58;;;;;;;7.00;89.13;102554.25;5076149;28;20115;-78
2021/12/18 05:50:11;;;;;;;7.00;2.08;;;;;;;7.08;89.32;102550.94;5075547;28;20493;-77
2021/12/18 05:52:36;;;;;;;7.38;2.72;;;;;;;7.00;88.77;102543.53;5075183;28;20032;-77
2021/12/18 05:55:02;;;;;;;6.03;2.08;;;;;;;7.12;88.81;102555.91;5075656;28;20032;-77
2021/12/18 05:57:28;;;;;;;7.00;1.98;;;;;;;7.11;88.66;102554.22;5074998;28;20032;-77
2021/12/18 05:59:53;;;;;;;6.15;2.13;;;;;;;7.06;88.80;102548.38;5075307;28;20024;-77
2021/12/18 06:02:19;;;;;;;8.50;2.10;;;;;;;6.97;88.75;102546.50;5074900;28;20430;-77
2021/12/18 06:04:44;;;;;;;8.95;1.77;;;;;;;6.98;89.13;102553.56;5075280;28;20119;-77
2021/12/18 06:07:17;;;;;;;7.97;2.95;;;;;;;7.08;89.16;102559.81;5075003;28;20044;-77
2021/12/18 06:09:43;;;;;;;9.50;3.00;;;;;;;7.18;88.46;102546.47;5075105;28;20024;-77
2021/12/18 06:12:09;;;;;;;13.43;3.42;;;;;;;7.06;89.08;102545.69;5075975;28;20459;-78
2021/12/18 06:14:34;;;;;;;13.50;4.15;;;;;;;7.04;89.05;102542.31;5075826;28;20494;-77
2021/12/18 06:16:59;;;;;;;13.10;4.10;;;;;;;7.06;89.06;102540.34;5075372;28;20056;-77
2021/12/18 06:19:25;;;;;;;13.23;4.13;;;;;;;7.09;89.20;102541.91;5076059;28;20171;-78
2021/12/18 06:21:50;;;;;;;11.67;4.37;;;;;;;7.15;88.90;102552.13;5075532;28;20316;-78
2021/12/18 06:24:15;;;;;;;13.18;4.25;;;;;;;7.04;89.54;102555.69;5075979;28;20033;-78
2021/12/18 06:26:42;;;;;;;11.77;4.05;;;;;;;7.09;89.85;102553.50;5077651;28;20033;-78
2021/12/18 06:29:07;;;;;;;;;;;;;;;7.03;89.70;102550.47;5077301;28;20459;-79
2021/12/18 06:31:33;;;;;;;9.50;3.88;;;;;;;7.03;89.82;102547.78;5080610;28;19977;-79
2021/12/18 06:39:24;;;;;;;13.52;3.97;;;;;;;7.13;90.84;102546.91;4975979;28;20117;-79
2021/12/18 06:41:50;;;;;;;11.20;3.87;;;;;;;7.16;90.19;102548.47;4977107;28;20046;-78
2021/12/18 06:44:15;;;;;;;9.23;3.57;;;;;;;7.13;90.50;102538.00;4977817;28;20297;-78
2021/12/18 06:46:41;;;;;;;15.00;4.22;;;;;;;7.24;89.83;102541.44;4977788;28;20030;-78
2021/12/18 06:49:09;;;;;;;17.73;5.80;;;;;;;7.18;90.44;102541.13;4978003;28;20118;-78
2021/12/18 06:51:34;;;;;;;13.43;4.93;;;;;;;7.17;90.23;102536.72;4976822;28;20278;-78
2021/12/18 06:54:00;;;;;;;13.00;3.90;;;;;;;7.29;89.87;102539.22;4977906;28;20031;-79
2021/12/18 06:56:25;;;;;;;12.82;4.63;;;;;;;7.21;90.27;102532.81;4978045;28;20037;-79
2021/12/18 06:58:50;;;;;;;12.30;4.37;;;;;;;7.13;90.25;102538.00;4960288;28;20121;-79
2021/12/18 07:01:16;;;;;;;9.95;3.80;;;;;;;7.06;90.44;102529.63;4977339;28;20281;-78
2021/12/18 07:03:41;;;;;;;10.90;3.28;;;;;;;7.01;90.33;102534.50;4945697;28;20082;-78
2021/12/18 07:06:06;;;;;;;12.13;5.00;;;;;;;6.96;90.68;102536.75;4960726;28;20068;-77
2021/12/18 07:08:32;;;;;;;14.80;4.40;;;;;;;7.02;91.53;102536.22;4958423;28;20504;-78
2021/12/18 07:10:57;;;;;;;10.85;3.97;;;;;;;7.35;91.46;102532.47;4975558;28;20277;-77
2021/12/18 07:13:23;;;;;;;17.70;5.30;;;;;;;7.43;89.57;102538.03;4975678;28;20041;-78
2021/12/18 07:15:48;;;;;;;15.85;5.07;;;;;;;7.41;90.19;102531.09;4976327;28;20062;-78
2021/12/18 07:18:14;;;;;;;17.85;5.07;;;;;;;7.29;89.90;102531.19;4976511;28;20041;-77
2021/12/18 07:20:39;;;;;;;12.57;4.15;;;;;;;7.27;90.64;102530.47;4975187;28;20038;-77
2021/12/18 07:23:04;;;;;;;13.03;4.40;;;;;;;7.30;90.26;102530.22;4975939;28;20066;-79
2021/12/18 07:25:31;;;;;;;13.38;4.78;;;;;;;7.37;90.44;102535.88;4975433;28;20258;-78
2021/12/18 07:27:57;;;;;;;14.95;3.83;;;;;;;7.52;90.17;102539.09;4975229;28;20086;-78
2021/12/18 07:30:23;;;;;;;12.13;4.55;;;;;;;7.43;89.95;102542.56;4975349;28;20403;-78
2021/12/18 07:32:49;;;;;;;15.13;4.68;;;;;;;7.40;90.12;102550.84;4958321;28;20039;-78
2021/12/18 07:35:14;;;;;;;17.25;4.60;;;;;;;7.34;89.47;102551.41;4976263;28;20050;-78
2021/12/18 07:37:40;;;;;;;17.98;5.20;;;;;;;7.39;89.49;102551.84;4983813;28;20491;-78
2021/12/18 07:40:07;;;;;;;13.43;4.53;;;;;;;7.40;89.88;102561.59;4978342;28;20080;-78
2021/12/18 07:42:33;;;;;;;17.80;4.97;;;;;;;7.36;89.54;102557.47;4995459;28;20288;-77
2021/12/18 07:44:59;;;;;;;16.30;4.53;;;;;;;7.29;89.34;102554.47;4994833;28;20030;-77
2021/12/18 07:47:24;;;;;;;15.10;4.72;;;;;;;7.29;89.92;102554.47;4995139;28;20473;-78
2021/12/18 07:49:50;;;;;;;10.13;4.07;;;;;;;7.34;89.16;102560.31;4996267;28;20030;-77
2021/12/18 07:52:15;;;;;;;16.90;4.97;;;;;;;7.23;90.30;102553.16;4995651;28;20253;-78
2021/12/18 07:54:41;;;;;;;16.13;4.70;;;;;;;7.36;91.31;102554.78;4994966;28;20505;-77
2021/12/18 07:57:07;;;;;;;16.65;5.22;;;;;;;7.28;90.15;102553.63;4995350;28;20026;-77
2021/12/18 07:59:33;;;;;;;15.57;3.80;;;;;;;7.32;89.84;102556.91;4996402;28;20038;-77
2021/12/18 08:02:00;;;;;;;16.02;6.07;;;;;;;7.25;89.57;102548.50;4995302;28;20461;-77
2021/12/18 08:04:27;;;;;;;23.73;5.55;;;;;;;7.51;89.53;102554.34;4994316;28;20038;-77
2021/12/18 08:06:52;;;;;;;21.08;5.80;;;;;;;7.39;89.65;102550.00;4994098;28;20496;-77
2021/12/18 08:09:17;;;;;;;22.53;4.57;;;;;;;7.72;88.80;102543.53;4994524;28;20038;-77
2021/12/18 08:11:43;;;;;;;17.98;5.88;;;;;;;7.55;87.43;102542.31;4977138;28;20266;-78
2021/12/18 08:14:08;;;;;;;15.13;5.35;;;;;;;7.43;88.62;102545.22;4993284;28;20026;-78
2021/12/18 08:16:33;;;;;;;22.87;5.33;;;;;;;7.29;89.70;102541.91;4994367;28;20061;-78
2021/12/18 08:18:59;;;;;;;16.60;5.10;;;;;;;7.28;89.75;102548.25;4994191;28;20270;-77
2021/12/18 08:21:24;;;;;;;15.63;3.83;;;;;;;7.28;89.36;102552.78;4994074;28;20066;-77
2021/12/18 08:23:49;;;;;;;15.80;5.13;;;;;;;7.30;90.18;102543.63;4994162;28;20057;-77
2021/12/18 08:26:15;;;;;;;17.42;4.82;;;;;;;7.24;90.34;102543.28;4994296;28;20045;-78
2021/12/18 08:28:40;;;;;;;14.45;5.10;;;;;;;7.11;90.96;102539.97;4993925;28;20038;-78
2021/12/18 08:31:06;;;;;;;16.07;5.73;;;;;;;7.02;91.28;102536.22;4995704;28;20037;-78
2021/12/18 08:33:31;;;;;;;23.02;5.32;;;;;;;7.08;91.37;102546.44;4998027;28;20732;-81
2021/12/18 08:35:57;;;;;;;17.33;5.40;;;;;;;7.38;92.59;102544.78;4999356;28;20070;-79
2021/12/18 08:38:22;;;;;;;21.38;5.78;;;;;;;7.19;91.13;102542.81;4995810;28;20046;-78
2021/12/18 08:40:49;;;;;;;17.50;5.93;;;;;;;7.13;91.26;102554.09;4995891;28;20094;-78
2021/12/18 08:43:15;;;;;;;19.13;4.95;;;;;;;7.28;91.20;102542.03;4995946;28;20448;-78
2021/12/18 08:45:40;;;;;;;15.65;4.95;;;;;;;7.16;91.27;102543.97;4995062;28;20066;-78
2021/12/18 08:48:05;;;;;;;17.25;4.53;;;;;;;7.23;91.65;102542.44;4995149;28;20045;-79
2021/12/18 08:50:31;;;;;;;16.88;5.20;;;;;;;7.35;91.84;102553.06;4995245;28;20527;-79
2021/12/18 08:52:57;;;;;;;20.77;6.55;;;;;;;7.20;91.21;102550.72;5000242;28;20453;-78
2021/12/18 08:55:23;;;;;;;22.70;6.13;;;;;;;7.02;92.13;102546.09;5002498;28;20070;-78
2021/12/18 08:57:49;;;;;;;18.70;5.80;;;;;;;6.93;92.06;102542.38;5002627;28;20484;-78
2021/12/18 09:00:18;;;;;;;20.02;6.22;;;;;;;6.86;92.93;102541.16;5003252;28;20062;-78
2021/12/18 09:02:46;;;;;;;16.40;5.38;;;;;;;6.77;92.45;102544.63;4967779;28;20042;-78
2021/12/18 09:05:12;;;;;;;17.85;6.22;;;;;;;6.70;93.49;102554.16;4998986;28;20034;-78
2021/12/18 09:07:37;;;;;;;26.15;6.22;;;;;;;6.67;93.73;102546.38;4998706;28;20037;-78
2021/12/18 09:10:05;;;;;;;23.90;6.18;;;;;;;6.71;93.98;102555.84;4998165;28;20072;-78
2021/12/18 09:12:30;;;;;;;17.58;5.88;;;;;;;6.73;93.66;102549.41;4998313;28;20121;-78
2021/12/18 09:14:56;;;;;;;15.80;5.65;;;;;;;6.67;93.42;102549.91;4996976;28;20116;-77
2021/12/18 09:17:21;;;;;;;18.90;5.18;;;;;;;6.70;93.79;102549.66;4979303;28;20491;-78
2021/12/18 09:19:51;;;;;;;19.23;5.37;;;;;;;6.80;93.32;102555.09;4997547;28;20041;-78
2021/12/18 09:22:17;;;;;;;15.50;4.63;;;;;;;6.78;93.50;102549.03;4999429;28;20285;-78
2021/12/18 09:24:42;;;;;;;18.33;6.28;;;;;;;6.73;93.41;102556.59;5000108;28;20038;-78
2021/12/18 09:27:08;;;;;;;28.70;8.48;;;;;;;6.70;93.54;102551.47;5000315;28;20028;-79
2021/12/18 09:29:34;;;;;;;26.08;7.70;;;;;;;6.53;93.69;102553.72;5002574;28;20121;-79
2021/12/18 09:31:59;;;;;;;23.83;8.40;;;;;;;6.56;93.69;102542.75;5001164;28;20069;-77
2021/12/18 09:34:27;;;;;;;32.55;7.88;;;;;;;6.52;93.57;102552.03;4997764;28;20038;-77
2021/12/18 09:36:53;;;;;;;23.65;8.77;;;;;;;6.53;93.40;102551.03;4998046;28;20443;-80
2021/12/18 09:39:18;;;;;;;29.02;8.13;;;;;;;6.52;93.60;102548.50;4999499;28;20030;-78
2021/12/18 09:41:47;;;;;;;22.48;6.95;;;;;;;6.75;93.48;102558.16;4998831;28;20116;-78
2021/12/18 09:44:13;;;;;;;25.13;7.97;;;;;;;6.75;93.46;102551.94;4998510;28;20040;-78
2021/12/18 09:46:38;;;;;;;22.58;6.60;;;;;;;6.72;93.43;102550.38;4980142;28;20101;-78
2021/12/18 09:49:09;;;;;;;25.67;7.10;;;;;;;6.63;93.90;102546.63;4996545;28;20057;-78
2021/12/18 09:51:37;;;;;;;23.48;7.00;;;;;;;6.58;93.72;102543.50;4998185;28;20495;-80
2021/12/18 09:54:02;;;;;;;28.10;9.10;;;;;;;6.61;93.74;102545.06;4998477;28;20105;-78
2021/12/18 09:56:28;;;;;;;23.70;8.93;;;;;;;6.47;93.41;102546.19;4996199;28;20121;-79
2021/12/18 09:58:54;;;;;;;28.17;7.97;;;;;;;6.52;93.89;102543.13;4998028;28;20093;-78
2021/12/18 10:01:19;;;;;;;23.75;6.95;;;;;;;6.56;94.19;102542.75;4995264;28;20030;-78
2021/12/18 10:04:03;;;;;;;27.73;8.13;;;;;;;6.58;93.72;102538.13;4997940;28;20070;-79
2021/12/18 10:06:40;;;;;;;19.33;6.32;;;;;;;6.63;93.78;102542.25;4996709;28;20061;-77
2021/12/18 10:09:38;;;;;;;19.48;7.63;;;;;;;6.66;93.89;102531.28;4996903;28;20026;-78
2021/12/18 10:12:19;;;;;;;19.70;6.32;;;;;;;6.74;93.59;102528.81;4980787;28;20453;-78
2021/12/18 10:15:01;;;;;;;25.35;7.70;;;;;;;6.62;93.15;102533.38;4981446;28;20034;-79
2021/12/18 10:17:38;;;;;;;20.42;5.90;;;;;;;6.69;93.65;102525.66;4998834;28;20030;-78
2021/12/18 10:20:10;;;;;;;21.48;6.20;;;;;;;6.73;93.73;102524.44;4995146;28;20121;-78
2021/12/18 10:22:57;;;;;;;24.42;6.65;;;;;;;6.60;93.00;102525.47;4995868;28;20476;-77
2021/12/18 10:25:42;;;;;;;13.77;5.30;;;;;;;6.63;93.22;102520.84;4996349;28;20026;-79
2021/12/18 10:28:21;;;;;;;18.15;6.03;;;;;;;6.69;93.66;102517.63;4979359;28;20134;-77
2021/12/18 10:30:50;;;;;;;18.23;5.53;;;;;;;6.72;93.48;102512.00;4995864;28;20056;-78
2021/12/18 10:33:16;;;;;;;18.98;5.68;;;;;;;6.71;93.32;102508.50;4996209;28;20029;-79
2021/12/18 10:35:47;;;;;;;16.20;6.28;;;;;;;6.74;92.59;102512.75;4996210;28;20105;-78
2021/12/18 10:38:48;;;;;;;14.63;5.63;;;;;;;6.77;93.01;102499.94;4994493;28;20054;-76
2021/12/18 10:41:34;;;;;;;22.63;6.03;;;;;;;6.79;93.19;102505.16;4994594;28;20464;-77
2021/12/18 10:44:13;;;;;;;15.40;5.38;;;;;;;6.79;92.42;102511.38;4994467;28;20030;-78
2021/12/18 10:47:15;;;;;;;20.85;5.45;;;;;;;6.74;92.55;102502.88;4978450;28;20042;-78
2021/12/18 10:52:44;;;;;;;18.90;5.38;;;;;;;6.70;91.72;102508.63;4915871;29;20039;-77
2021/12/18 10:55:10;;;;;;;17.10;5.30;;;;;;;6.76;92.54;102494.72;4962695;28;20136;-79
2021/12/18 10:57:35;;;;;;;19.70;5.90;;;;;;;6.76;91.94;102500.91;4995161;28;20447;-78
2021/12/18 11:00:01;;;;;;;20.17;5.97;;;;;;;6.77;92.22;102502.63;4994629;28;20093;-79
2021/12/18 11:02:27;;;;;;;16.10;6.00;;;;;;;6.71;91.92;102500.44;4994612;28;20359;-78
2021/12/18 11:05:15;;;;;;;18.50;6.25;;;;;;;6.71;92.27;102499.59;4995535;28;20270;-75
2021/12/18 11:07:48;;;;;;;18.48;5.60;;;;;;;6.63;92.03;102502.09;4962563;28;20050;-78
2021/12/18 11:10:40;;;;;;;22.20;6.35;;;;;;;6.68;92.22;102500.69;4994818;28;20027;-78
2021/12/18 11:15:50;;;;;;;19.23;8.63;;;;;;;6.66;92.35;102494.63;4995114;28;20491;-77
2021/12/18 11:18:30;;;;;;;22.77;7.85;;;;;;;6.71;91.81;102489.72;4994612;28;20026;-79
2021/12/18 11:21:11;;;;;;;18.70;6.82;;;;;;;6.76;92.12;102486.66;4993746;28;20031;-79
2021/12/18 11:24:12;;;;;;;23.27;8.35;;;;;;;6.74;92.51;102480.59;4995524;28;20033;-78
2021/12/18 11:27:04;;;;;;;25.80;8.00;;;;;;;6.76;92.42;102490.19;4993864;28;20057;-78
2021/12/18 11:29:39;;;;;;;21.13;6.97;;;;;;;6.77;92.37;102478.50;4991939;28;20402;-78
2021/12/18 11:32:18;;;;;;;21.00;7.22;;;;;;;6.80;93.16;102474.72;4993264;28;20042;-78
2021/12/18 11:34:48;;;;;;;18.63;7.30;;;;;;;6.77;92.90;102475.81;4976963;28;20126;-79
2021/12/18 11:37:19;;;;;;;30.42;8.40;;;;;;;6.74;92.28;102469.88;4994022;28;20042;-77
2021/12/18 11:39:47;;;;;;;25.90;7.07;;;;;;;6.67;93.01;102469.53;4993760;28;20432;-80
2021/12/18 11:42:13;;;;;;;19.58;6.80;;;;;;;6.67;92.53;102466.84;4994794;28;20022;-78
2021/12/18 11:44:42;;;;;;;;;;;;;;;6.67;93.40;102460.66;4992385;28;20038;-79
2021/12/18 11:47:28;;;;;;;21.10;6.97;;;;;;;6.68;93.06;102459.66;4976164;28;19917;-77
2021/12/18 11:49:57;;;;;;;14.45;4.78;;;;;;;6.60;93.53;102461.19;4993568;28;20058;-78
2021/12/18 11:52:23;;;;;;;15.32;5.43;;;;;;;6.63;93.13;102457.38;4993278;28;20145;-77
2021/12/18 11:54:51;;;;;;;19.23;6.07;;;;;;;6.76;93.11;102449.16;4993363;28;20042;-77
2021/12/18 11:57:53;;;;;;;20.85;7.78;;;;;;;6.69;92.88;102443.47;4993511;28;20076;-77
2021/12/18 12:00:18;;;;;;;21.50;6.55;;;;;;;6.75;93.06;102448.31;4914314;29;20068;-76
2021/12/18 12:02:50;;;;;;;20.27;7.03;;;;;;;6.68;92.81;102446.28;4977250;28;20500;-77
2021/12/18 12:05:18;;;;;;;21.02;6.20;;;;;;;6.64;92.72;102440.31;4993341;28;20496;-77
2021/12/18 12:07:45;;;;;;;21.30;7.38;;;;;;;6.63;93.12;102444.81;4993457;28;20038;-77
2021/12/18 12:13:58;;;;;;;16.13;5.88;;;;;;;6.48;93.76;102446.13;4973128;28;20093;-79
2021/12/18 12:16:42;;;;;;;21.77;5.78;;;;;;;6.47;93.77;102443.56;4957503;28;20031;-78
2021/12/18 12:19:08;;;;;;;16.17;5.93;;;;;;;6.46;93.82;102450.75;4991127;28;20118;-78
2021/12/18 12:21:38;;;;;;;;;;;;;;;6.48;93.80;102453.31;4994578;28;20061;-80
2021/12/18 12:24:04;;;;;;;16.38;5.43;;;;;;;6.43;93.80;102440.31;4995451;28;19997;-77
2021/12/18 12:26:30;;;;;;;14.50;4.53;;;;;;;6.59;93.89;102443.41;4996706;28;20555;-76
2021/12/18 12:28:55;;;;;;;13.43;3.78;;;;;;;6.64;93.53;102434.97;4997112;28;20109;-77
2021/12/18 12:31:21;;;;;;;11.77;3.92;;;;;;;6.58;92.87;102444.38;4997137;28;20069;-77
2021/12/18 12:33:49;;;;;;;9.30;3.38;;;;;;;6.54;92.53;102439.41;4996971;28;20473;-77
2021/12/18 12:36:26;;;;;;;9.30;3.00;;;;;;;6.47;93.02;102438.22;4996990;28;20053;-77